Time;durP1;ratioP1;P1;durP2;ratioP2;P2;SDS_P1;SDS_P2;PMS_P1;PMS_P2;Temp;Humidity;BMP_temperature;BMP_pressure;BME280_temperature;BME280_humidity;BME280_pressure;Samples;Min_cycle;Max_cycle;Signal;HPM_P1;HPM_P2
2023/06/04 00:02:01;;;;;;;2.50;0.80;;;;;;;20.68;30.64;102005.28;16102337;19;130150;-45
2023/06/04 00:07:23;;;;;;;2.15;1.13;;;;;;;20.66;30.48;102001.91;16098166;19;130880;-39
2023/06/04 00:12:45;;;;;;;3.63;1.10;;;;;;;20.66;30.63;102001.91;16104890;19;129451;-42
2023/06/04 00:18:07;;;;;;;1.67;0.77;;;;;;;20.64;31.00;101996.56;16100768;19;131133;-39
2023/06/04 00:23:29;;;;;;;2.85;0.95;;;;;;;20.64;30.54;101987.41;16105121;19;130406;-39
2023/06/04 00:28:51;;;;;;;2.05;0.95;;;;;;;20.63;31.06;101988.47;16103952;19;131808;-48
2023/06/04 00:34:13;;;;;;;3.80;1.00;;;;;;;20.62;31.04;101993.16;16110803;19;131935;-39
2023/06/04 00:39:34;;;;;;;2.42;1.05;;;;;;;20.60;30.95;101987.84;16122953;19;130564;-39
2023/06/04 00:44:58;;;;;;;2.33;0.90;;;;;;;20.60;30.92;101993.41;16126314;19;133540;-39
2023/06/04 00:50:21;;;;;;;2.42;0.95;;;;;;;20.59;31.01;101990.88;16117807;19;131039;-40
2023/06/04 00:55:42;;;;;;;1.83;0.80;;;;;;;20.57;31.24;101982.75;16117478;19;130159;-41
2023/06/04 01:01:32;;;;;;;2.73;1.10;;;;;;;20.55;30.76;101987.72;16115890;19;129984;-39
2023/06/04 01:06:58;;;;;;;4.10;1.20;;;;;;;20.54;30.98;101980.47;16106236;19;131462;-48
2023/06/04 01:12:20;;;;;;;2.72;1.00;;;;;;;20.53;31.22;101989.88;16107802;19;129606;-39
2023/06/04 01:17:51;;;;;;;1.95;1.00;;;;;;;20.52;30.74;101985.41;16106394;19;129702;-40
2023/06/04 01:23:27;;;;;;;3.50;0.90;;;;;;;20.51;31.33;101980.94;16100000;19;129350;-40
2023/06/04 01:28:50;;;;;;;2.07;0.90;;;;;;;20.50;31.25;101983.91;16099220;19;130339;-39
2023/06/04 01:34:12;;;;;;;4.55;1.10;;;;;;;20.48;31.34;101981.38;16104600;19;129635;-40
2023/06/04 01:39:34;;;;;;;5.60;1.20;;;;;;;20.49;31.27;101980.31;16106595;19;129816;-39
2023/06/04 01:44:56;;;;;;;11.35;1.40;;;;;;;20.49;31.80;101994.19;16115439;19;130609;-38
2023/06/04 01:50:19;;;;;;;4.88;1.20;;;;;;;20.51;31.78;102000.38;16107334;19;130025;-38
2023/06/04 01:55:40;;;;;;;14.02;1.70;;;;;;;20.53;32.23;101991.81;16113786;19;129976;-38
2023/06/04 02:01:04;;;;;;;8.70;1.50;;;;;;;20.52;31.80;101984.53;16113487;19;130923;-39
2023/06/04 02:06:29;;;;;;;7.00;1.38;;;;;;;20.51;31.87;101980.94;16118614;19;132490;-38
2023/06/04 02:11:51;;;;;;;7.93;1.43;;;;;;;20.49;32.13;101991.44;16116940;19;130998;-38
2023/06/04 02:17:13;;;;;;;6.93;1.38;;;;;;;20.49;32.12;101979.47;16116797;19;130140;-38
2023/06/04 02:22:35;;;;;;;6.65;1.42;;;;;;;20.47;32.37;101979.69;16115521;19;130022;-39
2023/06/04 02:27:57;;;;;;;4.68;1.30;;;;;;;20.46;31.85;101975.22;16111686;19;129641;-38
2023/06/04 02:33:20;;;;;;;6.18;1.02;;;;;;;20.45;32.10;101979.06;16115286;19;129639;-39
2023/06/04 02:38:42;;;;;;;4.30;1.40;;;;;;;20.44;32.25;101977.38;16115116;19;131554;-39
2023/06/04 02:44:04;;;;;;;4.97;1.50;;;;;;;20.43;32.26;101986.81;16113826;19;130227;-38
2023/06/04 02:49:26;;;;;;;9.25;1.42;;;;;;;20.41;32.40;101978.69;16117086;19;129890;-38
2023/06/04 02:54:48;;;;;;;5.05;1.35;;;;;;;20.42;32.24;101987.91;16110340;19;129302;-38
2023/06/04 03:00:12;;;;;;;3.88;1.15;;;;;;;20.40;32.06;101992.81;16112528;19;129734;-39
2023/06/04 03:05:36;;;;;;;4.57;1.45;;;;;;;20.39;31.97;101985.56;16114899;19;130394;-38
2023/06/04 03:10:58;;;;;;;2.00;1.08;;;;;;;20.38;32.17;101986.66;16114000;19;129407;-38
2023/06/04 03:16:20;;;;;;;1.98;0.90;;;;;;;20.39;32.18;101991.13;16112762;19;130351;-38
2023/06/04 03:21:42;;;;;;;2.70;1.20;;;;;;;20.38;32.34;101994.97;16111819;19;129773;-39
2023/06/04 03:27:05;;;;;;;3.80;1.08;;;;;;;20.36;32.04;101992.44;16105125;19;129814;-39
2023/06/04 03:32:27;;;;;;;3.50;1.00;;;;;;;20.35;32.13;101987.97;16109654;19;130772;-39
2023/06/04 03:37:49;;;;;;;5.95;1.25;;;;;;;20.35;32.03;101992.66;16104513;19;129801;-38
2023/06/04 03:43:11;;;;;;;14.27;2.13;;;;;;;20.33;32.64;101992.03;16110101;19;129486;-39
2023/06/04 03:48:33;;;;;;;22.27;1.92;;;;;;;20.34;32.66;101985.41;16108367;19;131005;-39
2023/06/04 03:53:55;;;;;;;7.95;1.73;;;;;;;20.36;32.45;101991.59;16111586;19;129705;-39
2023/06/04 03:59:17;;;;;;;17.48;1.67;;;;;;;20.37;32.69;101988.56;16104319;19;129591;-39
2023/06/04 04:04:39;;;;;;;13.70;2.20;;;;;;;20.39;32.64;101988.34;16108254;19;131122;-38
2023/06/04 04:10:01;;;;;;;6.85;1.52;;;;;;;20.40;32.94;101987.28;16124140;19;130255;-39
2023/06/04 04:15:23;;;;;;;17.27;1.30;;;;;;;20.43;32.61;102004.31;16124656;19;129698;-38
2023/06/04 04:20:46;;;;;;;11.05;1.70;;;;;;;20.48;32.77;102000.00;16122933;19;129826;-38
2023/06/04 04:26:09;;;;;;;7.60;1.67;;;;;;;20.51;32.59;101994.81;16123821;19;129330;-38
2023/06/04 04:31:31;;;;;;;3.50;1.30;;;;;;;20.55;32.78;101998.84;16125709;19;133132;-38
2023/06/04 04:36:54;;;;;;;6.75;1.65;;;;;;;20.60;32.83;101998.13;16123886;19;129446;-38
2023/06/04 04:42:15;;;;;;;5.95;1.48;;;;;;;20.65;32.64;102003.00;16124046;19;132337;-38
2023/06/04 04:47:38;;;;;;;7.72;1.65;;;;;;;20.70;32.54;102003.13;16119335;19;129296;-38
2023/06/04 04:53:01;;;;;;;3.90;1.30;;;;;;;20.74;32.58;102009.94;16120792;19;130829;-40
2023/06/04 04:58:23;;;;;;;8.68;1.35;;;;;;;20.80;32.50;102009.00;16115076;19;129865;-38
2023/06/04 05:03:45;;;;;;;19.48;2.38;;;;;;;20.84;32.62;102018.59;16119448;19;129760;-38
2023/06/04 05:09:07;;;;;;;18.70;2.15;;;;;;;20.89;32.41;102010.41;16120441;19;129844;-38
2023/06/04 05:14:29;;;;;;;23.48;1.67;;;;;;;20.96;32.33;102012.22;16120684;19;129422;-38
2023/06/04 05:19:52;;;;;;;15.77;2.15;;;;;;;21.02;32.36;102011.28;16117496;19;129581;-38
2023/06/04 05:25:14;;;;;;;9.40;1.42;;;;;;;21.07;32.39;102019.75;16118169;19;129395;-38
2023/06/04 05:30:41;;;;;;;5.05;1.40;;;;;;;21.13;32.24;102018.81;16117353;19;132911;-39
2023/06/04 05:36:03;;;;;;;11.75;1.90;;;;;;;21.18;32.33;102024.50;16119273;19;129455;-39
2023/06/04 05:41:27;;;;;;;10.20;1.90;;;;;;;21.25;32.18;102018.00;16117140;19;130607;-38
2023/06/04 05:46:50;;;;;;;14.38;1.98;;;;;;;21.28;32.54;102020.34;16117918;19;129365;-39
2023/06/04 05:52:12;;;;;;;10.20;1.30;;;;;;;21.32;32.35;102021.53;16116782;19;131070;-39
2023/06/04 05:57:34;;;;;;;7.95;1.23;;;;;;;21.37;32.46;102027.25;16119151;19;130703;-40
2023/06/04 06:02:56;;;;;;;4.28;1.20;;;;;;;21.40;32.55;102023.13;16117574;19;129764;-37
2023/06/04 06:08:18;;;;;;;9.75;1.67;;;;;;;21.43;32.14;102022.66;16117727;19;130151;-37
2023/06/04 06:13:40;;;;;;;8.15;1.55;;;;;;;21.46;32.45;102028.59;16117398;19;129794;-38
2023/06/04 06:19:02;;;;;;;3.05;1.25;;;;;;;21.51;31.99;102030.69;16117773;19;129831;-37
2023/06/04 06:24:25;;;;;;;4.57;1.30;;;;;;;21.54;32.63;102023.81;16112594;19;130318;-38
2023/06/04 06:29:47;;;;;;;4.53;1.30;;;;;;;21.58;32.60;102038.94;16113046;19;129352;-38
2023/06/04 06:35:09;;;;;;;6.07;1.20;;;;;;;21.62;32.12;102048.50;16113585;19;131023;-38
2023/06/04 06:40:31;;;;;;;3.90;1.38;;;;;;;21.66;32.57;102044.16;16117669;19;129578;-38
2023/06/04 06:45:53;;;;;;;10.88;1.60;;;;;;;21.69;32.19;102038.09;16115109;19;131571;-38
2023/06/04 06:51:15;;;;;;;23.00;3.08;;;;;;;21.71;32.49;102051.78;16110555;19;130871;-38
2023/06/04 06:56:37;;;;;;;18.42;2.47;;;;;;;21.74;32.17;102052.16;16114701;19;129750;-37
2023/06/04 07:01:59;;;;;;;9.00;1.70;;;;;;;21.77;32.17;102057.25;16112129;19;130785;-38
2023/06/04 07:07:21;;;;;;;15.13;1.50;;;;;;;21.81;32.31;102058.44;16113646;19;131100;-38
2023/06/04 07:12:43;;;;;;;14.10;1.30;;;;;;;21.86;31.77;102062.47;16111592;19;130462;-38
2023/06/04 07:18:05;;;;;;;12.98;1.80;;;;;;;21.88;32.05;102065.88;16110551;19;129404;-39
2023/06/04 07:23:27;;;;;;;11.77;1.65;;;;;;;21.87;32.06;102073.34;16110091;19;130347;-41
2023/06/04 07:28:49;;;;;;;9.57;1.77;;;;;;;21.88;31.81;102068.66;16109289;19;131472;-39
2023/06/04 07:34:11;;;;;;;10.55;1.38;;;;;;;21.89;31.79;102064.78;16108208;19;129600;-38
2023/06/04 07:39:33;;;;;;;5.63;1.42;;;;;;;21.91;31.58;102066.22;16103694;19;129564;-38
2023/06/04 07:44:55;;;;;;;7.75;1.13;;;;;;;21.92;31.38;102067.91;16124723;19;129873;-38
2023/06/04 07:50:17;;;;;;;5.65;1.23;;;;;;;21.94;31.61;102068.53;16123446;19;134653;-37
2023/06/04 07:55:39;;;;;;;5.85;1.08;;;;;;;21.99;31.74;102070.59;16123319;19;129670;-38
2023/06/04 08:01:01;;;;;;;4.47;1.27;;;;;;;22.00;31.45;102063.06;16125066;19;129696;-48
2023/06/04 08:06:24;;;;;;;14.32;1.70;;;;;;;22.02;31.84;102069.25;16128144;19;130046;-47
2023/06/04 08:11:46;;;;;;;13.32;1.70;;;;;;;22.06;31.71;102064.91;16130003;19;130558;-46
2023/06/04 08:17:08;;;;;;;11.98;2.10;;;;;;;22.09;31.72;102056.91;16124157;19;130388;-48
2023/06/04 08:22:30;;;;;;;12.15;2.17;;;;;;;22.13;31.75;102068.41;16125812;19;129403;-47
2023/06/04 08:27:52;;;;;;;14.75;1.98;;;;;;;22.15;31.93;102065.38;16121384;19;133880;-47
2023/06/04 08:33:13;;;;;;;7.30;1.52;;;;;;;22.15;31.90;102068.19;16123294;19;131025;-48
2023/06/04 08:38:35;;;;;;;8.35;1.88;;;;;;;22.15;31.88;102062.59;16127417;19;130157;-48
2023/06/04 08:43:58;;;;;;;8.20;1.52;;;;;;;22.17;32.21;102074.31;16124589;19;129809;-47
2023/06/04 08:49:24;;;;;;;12.32;1.58;;;;;;;22.20;31.93;102065.50;16120032;19;130479;-48
2023/06/04 08:54:49;;;;;;;4.75;1.27;;;;;;;22.18;32.02;102079.69;16122561;19;130164;-47
2023/06/04 09:00:12;;;;;;;22.47;1.67;;;;;;;22.19;31.96;102075.81;16118836;19;130221;-48
2023/06/04 09:05:35;;;;;;;11.35;1.73;;;;;;;22.21;31.60;102073.66;16122660;19;129870;-47
2023/06/04 09:10:57;;;;;;;13.27;1.15;;;;;;;22.22;31.78;102071.72;16119545;19;131197;-48
2023/06/04 09:16:19;;;;;;;10.73;1.45;;;;;;;22.21;31.56;102073.66;16121282;19;130866;-48
2023/06/04 09:21:52;;;;;;;6.85;1.05;;;;;;;22.23;31.50;102071.44;16120087;19;129759;-47
2023/06/04 09:27:18;;;;;;;3.60;1.10;;;;;;;22.22;31.53;102074.50;16118912;19;129126;-47
2023/06/04 09:32:40;;;;;;;4.63;1.05;;;;;;;22.22;31.27;102077.28;16119363;19;131836;-48
2023/06/04 09:38:04;;;;;;;5.25;1.13;;;;;;;22.23;30.98;102065.03;16120106;19;130572;-48
2023/06/04 09:43:26;;;;;;;3.88;0.90;;;;;;;22.23;31.29;102076.19;16119526;19;130600;-46
2023/06/04 09:48:48;;;;;;;1.98;0.98;;;;;;;22.22;31.00;102074.50;16119323;19;130283;-48
2023/06/04 09:54:10;;;;;;;7.40;0.90;;;;;;;22.20;31.10;102068.28;16117184;19;129318;-47
2023/06/04 09:59:39;;;;;;;4.78;0.98;;;;;;;22.20;31.10;102068.28;16119533;19;130615;-47
2023/06/04 10:05:02;;;;;;;6.80;1.17;;;;;;;22.19;31.11;102069.38;16110543;19;129935;-48
2023/06/04 10:10:26;;;;;;;2.90;0.75;;;;;;;22.17;30.59;102065.97;16116421;19;129509;-47
2023/06/04 10:15:50;;;;;;;4.05;1.58;;;;;;;22.13;31.03;102066.47;16116602;19;129290;-48
2023/06/04 10:21:13;;;;;;;3.42;0.90;;;;;;;22.13;30.46;102069.25;16113077;19;129982;-47
2023/06/04 10:26:40;;;;;;;4.45;0.90;;;;;;;22.13;30.76;102066.47;16107066;19;131020;-48
2023/06/04 10:32:06;;;;;;;1.80;0.95;;;;;;;22.10;30.60;102061.38;16112749;19;129721;-48
2023/06/04 10:37:29;;;;;;;3.45;1.10;;;;;;;22.09;30.80;102059.69;16114392;19;130658;-47
2023/06/04 10:42:53;;;;;;;2.85;0.68;;;;;;;22.08;30.68;102063.56;16107389;19;129408;-47
2023/06/04 10:48:15;;;;;;;6.05;1.17;;;;;;;22.08;30.44;102051.56;16112790;19;131236;-48
2023/06/04 10:53:37;;;;;;;4.40;1.13;;;;;;;22.07;30.37;102050.72;16111707;19;133544;-47
2023/06/04 10:59:00;;;;;;;4.25;0.93;;;;;;;22.07;30.24;102049.88;16113451;19;129712;-46
2023/06/04 11:04:23;;;;;;;4.97;1.15;;;;;;;22.06;30.48;102054.59;16109239;19;129829;-47
2023/06/04 11:09:49;;;;;;;3.13;0.80;;;;;;;22.06;30.34;102049.00;16111002;19;129784;-47
2023/06/04 11:15:12;;;;;;;2.10;0.70;;;;;;;22.04;30.32;102037.25;16110423;19;129521;-47
2023/06/04 11:20:36;;;;;;;6.50;1.23;;;;;;;22.04;29.96;102042.84;16101216;19;129419;-47
2023/06/04 11:25:58;;;;;;;6.47;0.90;;;;;;;22.03;30.28;102037.50;16111026;19;129736;-47
2023/06/04 11:31:21;;;;;;;3.55;0.80;;;;;;;22.04;30.01;102031.69;16110232;19;129726;-48
2023/06/04 11:36:43;;;;;;;4.20;0.90;;;;;;;22.05;30.00;102030.59;16109879;19;129356;-38
2023/06/04 11:42:07;;;;;;;5.85;1.23;;;;;;;22.06;30.20;102025.88;16111431;19;129292;-38
2023/06/04 11:47:29;;;;;;;1.37;0.90;;;;;;;22.05;29.83;102029.75;16107792;19;129862;-39
2023/06/04 11:52:53;;;;;;;3.72;0.65;;;;;;;22.05;29.73;102029.75;16112549;19;130268;-38
2023/06/04 11:58:15;;;;;;;2.70;0.85;;;;;;;22.05;29.81;102018.63;16108462;19;130270;-38
2023/06/04 12:03:41;;;;;;;1.40;0.70;;;;;;;22.06;29.80;102004.44;16105214;19;130194;-38
2023/06/04 12:09:04;;;;;;;3.35;0.88;;;;;;;22.07;29.49;102002.50;16108116;19;130443;-38
2023/06/04 12:14:26;;;;;;;1.55;0.85;;;;;;;22.07;29.45;102013.66;16108401;19;130727;-40
2023/06/04 12:19:51;;;;;;;2.40;0.90;;;;;;;22.09;29.48;102003.94;16107560;19;130998;-38
2023/06/04 12:25:25;;;;;;;1.77;0.73;;;;;;;22.09;29.53;101989.19;16108994;19;129805;-38
2023/06/04 12:30:47;;;;;;;1.52;0.50;;;;;;;22.06;29.29;102010.00;16123523;19;131228;-38
2023/06/04 12:36:10;;;;;;;2.90;0.93;;;;;;;22.06;29.39;101998.84;16121785;19;129666;-38
2023/06/04 12:41:33;;;;;;;1.92;0.70;;;;;;;22.07;29.70;102003.34;16119417;19;134470;-38
2023/06/04 12:46:55;;;;;;;3.05;0.70;;;;;;;22.07;29.58;101994.97;16123485;19;131424;-38
2023/06/04 12:52:17;;;;;;;1.05;0.82;;;;;;;22.08;29.29;101988.31;16120893;19;130479;-38
2023/06/04 12:57:39;;;;;;;0.85;0.60;;;;;;;22.07;28.99;101983.00;16120611;19;130520;-38
2023/06/04 13:03:01;;;;;;;1.75;0.70;;;;;;;22.08;29.11;101979.97;16119760;19;129770;-38
2023/06/04 13:08:23;;;;;;;2.53;0.85;;;;;;;22.08;29.28;101987.47;16116146;19;129787;-41
2023/06/04 13:13:45;;;;;;;2.05;0.90;;;;;;;22.07;29.39;101983.84;16121951;19;129638;-39
2023/06/04 13:19:08;;;;;;;2.15;0.63;;;;;;;22.05;29.25;101986.00;16122371;19;129937;-38
2023/06/04 13:24:30;;;;;;;2.78;0.80;;;;;;;22.06;29.10;101992.44;16119900;19;129985;-43
2023/06/04 13:29:52;;;;;;;3.10;0.88;;;;;;;22.06;28.99;101979.34;16122562;19;130089;-41
2023/06/04 13:35:15;;;;;;;2.13;0.80;;;;;;;22.07;28.83;101978.25;16120415;19;129983;-42
2023/06/04 13:40:37;;;;;;;1.75;0.70;;;;;;;22.07;28.62;101981.03;16119885;19;134595;-41
2023/06/04 13:45:59;;;;;;;1.48;0.80;;;;;;;22.05;29.23;101980.44;16120012;19;129589;-38
2023/06/04 13:51:20;;;;;;;1.10;0.73;;;;;;;22.06;29.08;101982.13;16118332;19;131219;-38
2023/06/04 13:56:44;;;;;;;2.50;0.82;;;;;;;22.06;28.80;101973.78;16117682;19;129877;-38
2023/06/04 14:02:07;;;;;;;2.80;0.73;;;;;;;22.05;28.99;101974.88;16113204;19;129839;-38
2023/06/04 14:07:29;;;;;;;2.70;0.80;;;;;;;22.06;28.81;101967.38;16117312;19;129815;-38
2023/06/04 14:12:51;;;;;;;1.52;0.80;;;;;;;22.06;29.02;101965.41;16116884;19;130497;-38
2023/06/04 14:18:13;;;;;;;1.27;0.93;;;;;;;22.05;29.12;101963.72;16117696;19;129866;-38
2023/06/04 14:23:35;;;;;;;1.80;0.70;;;;;;;22.06;28.79;101956.22;16117527;19;129848;-38
2023/06/04 14:28:57;;;;;;;3.90;1.00;;;;;;;22.04;28.45;101950.88;16115563;19;133101;-38
2023/06/04 14:34:19;;;;;;;2.05;0.60;;;;;;;22.03;28.32;101951.13;16114556;19;130298;-38
2023/06/04 14:39:41;;;;;;;1.17;0.80;;;;;;;22.03;28.39;101957.53;16116539;19;130894;-38
2023/06/04 14:45:04;;;;;;;2.15;0.80;;;;;;;22.03;28.73;101951.97;16111956;19;130390;-38
2023/06/04 14:50:25;;;;;;;2.92;1.05;;;;;;;22.03;28.46;101949.19;16096909;19;130166;-38
2023/06/04 14:55:48;;;;;;;1.00;0.85;;;;;;;22.03;28.34;101945.56;16090895;19;130745;-37
2023/06/04 15:01:10;;;;;;;1.75;0.90;;;;;;;22.03;28.82;101943.59;16110142;19;129814;-37
2023/06/04 15:06:32;;;;;;;2.72;0.90;;;;;;;22.03;28.55;101931.63;16113961;19;129636;-48
2023/06/04 15:11:54;;;;;;;4.00;0.93;;;;;;;22.05;28.59;101946.16;16114615;19;130996;-48
2023/06/04 15:17:16;;;;;;;2.35;0.90;;;;;;;22.04;28.34;101936.09;16110490;19;131481;-48
2023/06/04 15:22:38;;;;;;;1.50;1.00;;;;;;;22.03;28.54;101932.47;16109282;19;130083;-48
2023/06/04 15:28:00;;;;;;;3.05;1.20;;;;;;;22.04;28.70;101933.31;16111381;19;130403;-48
2023/06/04 15:33:22;;;;;;;0.95;0.77;;;;;;;22.04;28.59;101927.75;16111147;19;129908;-47
2023/06/04 15:38:44;;;;;;;5.50;1.00;;;;;;;22.04;28.53;101934.16;16109610;19;129724;-48
2023/06/04 15:44:06;;;;;;;0.82;0.70;;;;;;;22.04;28.47;101928.59;16108856;19;130843;-47
2023/06/04 15:49:29;;;;;;;2.80;1.00;;;;;;;22.04;28.79;101928.59;16107644;19;130655;-47
2023/06/04 15:54:51;;;;;;;4.15;1.20;;;;;;;22.05;28.76;101927.50;16109801;19;129466;-48
2023/06/04 16:00:13;;;;;;;4.05;1.52;;;;;;;22.06;29.01;101926.41;16108210;19;129689;-47
2023/06/04 16:05:35;;;;;;;7.82;1.25;;;;;;;22.06;29.09;101920.84;16119503;19;131330;-47
2023/06/04 16:10:57;;;;;;;5.47;1.25;;;;;;;22.06;29.23;101920.84;16123373;19;132782;-47
2023/06/04 16:16:19;;;;;;;2.92;1.05;;;;;;;22.06;28.99;101912.47;16123250;19;129625;-38
2023/06/04 16:21:41;;;;;;;6.75;1.27;;;;;;;22.05;29.35;101913.56;16123837;19;130324;-38
2023/06/04 16:27:03;;;;;;;6.25;1.15;;;;;;;22.04;29.41;101906.28;16123270;19;129339;-39
2023/06/04 16:32:25;;;;;;;9.15;1.48;;;;;;;22.05;29.30;101902.41;16121154;19;130271;-38
2023/06/04 16:37:48;;;;;;;4.55;1.20;;;;;;;22.07;29.47;101893.81;16121315;19;130380;-48
2023/06/04 16:43:10;;;;;;;6.63;2.00;;;;;;;22.09;29.80;101898.06;16120110;19;129593;-47
2023/06/04 16:48:32;;;;;;;6.30;1.70;;;;;;;22.11;29.44;101898.66;16121710;19;129730;-48
2023/06/04 16:53:54;;;;;;;13.55;2.40;;;;;;;22.13;29.84;101893.69;16124557;19;129672;-48
2023/06/04 16:59:16;;;;;;;7.43;1.83;;;;;;;22.17;29.91;101882.03;16122072;19;129588;-47
2023/06/04 17:04:38;;;;;;;7.82;1.77;;;;;;;22.19;30.05;101886.28;16122345;19;129457;-48
2023/06/04 17:10:00;;;;;;;17.15;2.20;;;;;;;22.19;29.79;101880.69;16121381;19;131935;-48
2023/06/04 17:15:22;;;;;;;12.00;2.10;;;;;;;22.24;30.05;101888.34;16116399;19;129774;-39
2023/06/04 17:20:43;;;;;;;12.05;2.42;;;;;;;22.22;30.09;101885.78;16116274;19;130258;-39
2023/06/04 17:26:06;;;;;;;8.45;2.38;;;;;;;22.22;30.02;101884.97;16119207;19;129622;-39
2023/06/04 17:31:28;;;;;;;13.40;2.05;;;;;;;22.21;30.34;101881.34;16117494;19;129515;-39
2023/06/04 17:36:50;;;;;;;9.98;2.35;;;;;;;22.22;30.14;101890.53;16118932;19;129469;-39
2023/06/04 17:42:12;;;;;;;14.85;2.38;;;;;;;22.22;30.44;101887.75;16117375;19;130447;-39
2023/06/04 17:47:34;;;;;;;13.65;2.22;;;;;;;22.24;30.17;101893.94;16118584;19;130421;-39
2023/06/04 17:52:56;;;;;;;16.60;2.55;;;;;;;22.23;30.14;101890.28;16119073;19;130496;-39
2023/06/04 17:58:20;;;;;;;12.23;1.95;;;;;;;22.22;30.05;101890.53;16118288;19;132075;-38
2023/06/04 18:03:42;;;;;;;16.27;2.47;;;;;;;22.23;30.36;101895.00;16116231;19;129436;-38
2023/06/04 18:09:06;;;;;;;9.50;1.92;;;;;;;22.23;30.35;101900.59;16114190;19;131250;-39
2023/06/04 18:14:27;;;;;;;12.32;2.28;;;;;;;22.23;30.85;101897.81;16116908;19;131376;-38
2023/06/04 18:19:51;;;;;;;12.85;2.10;;;;;;;22.22;30.29;101896.94;16115184;19;130333;-39
2023/06/04 18:25:13;;;;;;;15.88;2.40;;;;;;;22.21;30.31;101900.00;16112352;19;131424;-38
2023/06/04 18:30:35;;;;;;;11.95;2.00;;;;;;;22.21;30.62;101900.00;16114789;19;130558;-39
2023/06/04 18:35:57;;;;;;;11.00;2.47;;;;;;;22.21;30.36;101902.78;16117766;19;129397;-38
2023/06/04 18:41:19;;;;;;;10.77;2.17;;;;;;;22.21;30.62;101900.00;16114481;19;131068;-39
2023/06/04 18:46:40;;;;;;;7.45;2.00;;;;;;;22.19;30.56;101905.78;16113298;19;130078;-38
2023/06/04 18:52:03;;;;;;;6.78;2.22;;;;;;;22.17;30.63;101904.31;16110327;19;131544;-39
2023/06/04 18:57:24;;;;;;;13.35;1.88;;;;;;;22.15;30.80;101906.53;16113357;19;129648;-38
2023/06/04 19:02:46;;;;;;;10.02;2.10;;;;;;;22.13;30.82;101910.41;16114155;19;130609;-38
2023/06/04 19:08:08;;;;;;;11.13;1.88;;;;;;;22.08;30.85;101912.25;16113476;19;129568;-38
2023/06/04 19:13:30;;;;;;;8.70;2.00;;;;;;;22.01;30.96;101917.09;16112920;19;129361;-38
2023/06/04 19:18:52;;;;;;;6.78;1.60;;;;;;;21.97;31.53;101925.09;16114479;19;130455;-38
2023/06/04 19:24:14;;;;;;;4.90;1.40;;;;;;;21.92;31.39;101936.13;16112142;19;131529;-38
2023/06/04 19:29:38;;;;;;;13.18;2.10;;;;;;;21.89;31.60;101942.19;16112051;19;129401;-39
2023/06/04 19:35:00;;;;;;;8.57;1.75;;;;;;;21.93;31.76;101943.38;16112489;19;130827;-41
2023/06/04 19:40:22;;;;;;;18.05;2.38;;;;;;;21.92;31.90;101950.91;16111177;19;129375;-41
2023/06/04 19:45:49;;;;;;;16.80;2.50;;;;;;;21.88;32.25;101968.34;16112282;19;129165;-41
2023/06/04 19:51:13;;;;;;;18.02;2.05;;;;;;;21.84;32.35;101951.28;16109166;19;129433;-41
2023/06/04 19:56:37;;;;;;;8.77;1.48;;;;;;;21.82;32.27;101973.78;16109271;19;130479;-41
2023/06/04 20:01:59;;;;;;;8.93;1.85;;;;;;;21.79;32.38;101974.28;16108756;19;129743;-44
2023/06/04 20:07:21;;;;;;;6.20;1.80;;;;;;;21.78;32.09;101977.31;16106739;19;130419;-45
2023/06/04 20:12:43;;;;;;;5.90;1.80;;;;;;;21.76;32.72;101983.13;16107185;19;130773;-42
2023/06/04 20:18:06;;;;;;;5.68;1.70;;;;;;;21.74;32.74;101990.03;16107091;19;130380;-41
2023/06/04 20:23:28;;;;;;;8.75;1.85;;;;;;;21.73;32.75;102005.03;16107795;19;129761;-43
2023/06/04 20:28:52;;;;;;;3.72;1.55;;;;;;;21.70;32.76;102000.81;16106938;19;129596;-44
2023/06/04 20:34:14;;;;;;;7.55;1.80;;;;;;;21.69;32.67;102001.06;16108872;19;130070;-41
2023/06/04 20:39:39;;;;;;;4.30;1.30;;;;;;;21.68;32.77;102014.13;16108704;19;129403;-40
2023/06/04 20:45:01;;;;;;;5.95;1.40;;;;;;;21.65;32.77;102021.03;16106523;19;129638;-42
2023/06/04 20:50:23;;;;;;;5.55;1.65;;;;;;;21.65;32.82;102020.19;16114798;19;131019;-45
2023/06/04 20:55:45;;;;;;;5.22;1.58;;;;;;;21.63;33.05;102028.75;16119616;19;130745;-42
2023/06/04 21:01:07;;;;;;;6.40;1.60;;;;;;;21.63;33.21;102036.28;16121929;19;129667;-45
2023/06/04 21:06:28;;;;;;;4.35;1.38;;;;;;;21.60;33.09;102028.41;16119675;19;132331;-45
2023/06/04 21:11:50;;;;;;;4.57;1.42;;;;;;;21.59;33.35;102043.41;16120165;19;129505;-40
2023/06/04 21:17:12;;;;;;;3.42;1.13;;;;;;;21.56;33.44;102033.59;16119930;19;131263;-41
2023/06/04 21:22:34;;;;;;;5.25;1.48;;;;;;;21.55;33.04;102039.41;16121044;19;131709;-41
2023/06/04 21:27:56;;;;;;;5.85;1.63;;;;;;;21.53;33.10;102039.66;16120213;19;131067;-42
2023/06/04 21:33:18;;;;;;;3.03;1.50;;;;;;;21.52;33.37;102043.53;16116260;19;130546;-44
2023/06/04 21:38:41;;;;;;;7.47;1.45;;;;;;;21.50;33.43;102040.97;16117998;19;131516;-43
2023/06/04 21:44:03;;;;;;;5.60;1.38;;;;;;;21.50;33.75;102046.56;16118802;19;130404;-41
2023/06/04 21:49:25;;;;;;;4.53;1.50;;;;;;;21.49;33.40;102061.56;16120152;19;129534;-41
2023/06/04 21:54:47;;;;;;;4.22;1.50;;;;;;;21.47;33.34;102058.13;16117133;19;129274;-42
2023/06/04 22:00:11;;;;;;;2.28;1.20;;;;;;;21.48;33.44;102058.97;16113114;19;129571;-44
2023/06/04 22:05:33;;;;;;;2.85;1.50;;;;;;;21.46;33.69;102062.00;16116563;19;130546;-44
2023/06/04 22:10:55;;;;;;;3.33;1.55;;;;;;;21.44;33.79;102064.16;16119017;19;130810;-42
2023/06/04 22:16:17;;;;;;;4.68;1.50;;;;;;;21.43;33.55;102069.97;16115875;19;130481;-40
2023/06/04 22:21:39;;;;;;;2.70;1.10;;;;;;;21.43;33.61;102070.81;16114847;19;129585;-41
2023/06/04 22:27:01;;;;;;;3.47;1.60;;;;;;;21.41;33.63;102073.00;16118457;19;130425;-42
2023/06/04 22:32:23;;;;;;;6.28;1.83;;;;;;;21.41;33.91;102073.00;16115108;19;129381;-42
2023/06/04 22:37:45;;;;;;;4.00;1.60;;;;;;;21.40;33.90;102076.00;16115660;19;130705;-42
2023/06/04 22:43:06;;;;;;;4.70;1.42;;;;;;;21.38;33.88;102076.25;16115662;19;130958;-41
2023/06/04 22:48:28;;;;;;;2.47;1.23;;;;;;;21.37;34.05;102075.41;16113365;19;129614;-41
2023/06/04 22:53:50;;;;;;;3.03;1.48;;;;;;;21.37;34.34;102077.34;16109465;19;131027;-44
2023/06/04 22:59:12;;;;;;;4.22;1.30;;;;;;;21.36;34.10;102075.66;16117028;19;129928;-41
2023/06/04 23:04:34;;;;;;;3.25;1.38;;;;;;;21.36;34.24;102079.28;16114633;19;130849;-42
2023/06/04 23:09:56;;;;;;;5.82;1.33;;;;;;;21.35;33.93;102082.31;16113655;19;129703;-43
2023/06/04 23:15:21;;;;;;;2.25;1.40;;;;;;;21.33;34.39;102084.47;16114562;19;129590;-42
2023/06/04 23:20:43;;;;;;;3.50;1.60;;;;;;;21.32;33.85;102077.19;16114270;19;130948;-40
2023/06/04 23:26:05;;;;;;;5.70;1.50;;;;;;;21.31;34.34;102086.63;16113343;19;129469;-42
2023/06/04 23:31:27;;;;;;;2.72;1.58;;;;;;;21.30;34.30;102087.72;16111833;19;131702;-40
2023/06/04 23:36:51;;;;;;;3.67;1.45;;;;;;;21.28;34.45;102081.56;16112250;19;130980;-40
2023/06/04 23:42:13;;;;;;;3.17;1.50;;;;;;;21.26;34.39;102081.78;16111316;19;129944;-40
2023/06/04 23:47:35;;;;;;;5.20;1.50;;;;;;;21.27;34.06;102082.63;16110361;19;130687;-42
2023/06/04 23:52:57;;;;;;;2.90;1.35;;;;;;;21.25;34.30;102087.59;16110401;19;129764;-43
2023/06/04 23:58:19;;;;;;;3.45;1.27;;;;;;;21.25;34.45;102077.28;16108376;19;129663;-41
